Time;durP1;ratioP1;P1;durP2;ratioP2;P2;SDS_P1;SDS_P2;PMS_P1;PMS_P2;Temp;Humidity;BMP_temperature;BMP_pressure;BME280_temperature;BME280_humidity;BME280_pressure;Samples;Min_cycle;Max_cycle;Signal;HPM_P1;HPM_P2
2023/10/10 00:00:47;;;;;;;1.90;1.80;;;20.40;69.00;;;;;;5086729;28;20048;-78
2023/10/10 00:03:13;;;;;;;1.73;1.63;;;20.40;69.00;;;;;;5083081;28;20416;-78
2023/10/10 00:05:39;;;;;;;1.90;1.80;;;20.40;69.00;;;;;;5087449;28;20497;-78
2023/10/10 00:08:09;;;;;;;2.00;1.90;;;20.40;69.00;;;;;;5072604;28;20144;-77
2023/10/10 00:10:34;;;;;;;1.90;1.80;;;20.40;69.00;;;;;;5044261;28;20035;-77
2023/10/10 00:13:01;;;;;;;1.67;1.58;;;20.40;69.00;;;;;;5086583;28;20092;-77
2023/10/10 00:15:33;;;;;;;1.67;1.58;;;20.40;69.00;;;;;;5079838;28;20036;-77
2023/10/10 00:18:03;;;;;;;1.90;1.80;;;20.30;68.90;;;;;;5082982;28;20553;-77
2023/10/10 00:20:35;;;;;;;1.90;1.80;;;20.40;69.00;;;;;;5088784;28;20125;-77
2023/10/10 00:23:05;;;;;;;1.85;1.75;;;20.30;69.00;;;;;;5094810;28;20044;-77
2023/10/10 00:25:30;;;;;;;1.48;1.40;;;20.40;69.00;;;;;;5091250;28;20064;-78
2023/10/10 00:28:04;;;;;;;1.92;1.83;;;20.40;69.10;;;;;;5093073;28;20116;-78
2023/10/10 00:30:34;;;;;;;1.80;1.70;;;20.40;69.00;;;;;;5089117;28;20104;-78
2023/10/10 00:33:03;;;;;;;1.58;1.45;;;20.40;69.10;;;;;;5091070;28;20139;-78
2023/10/10 00:35:31;;;;;;;1.70;1.60;;;20.40;69.10;;;;;;5090214;28;20101;-78
2023/10/10 00:37:57;;;;;;;1.20;1.20;;;20.40;69.00;;;;;;5093655;28;20043;-78
2023/10/10 00:40:30;;;;;;;1.60;1.50;;;20.40;69.20;;;;;;5087553;28;20428;-78
2023/10/10 00:42:58;;;;;;;1.80;1.70;;;20.30;69.00;;;;;;5084428;28;20571;-78
2023/10/10 00:45:27;;;;;;;1.63;1.52;;;20.30;68.90;;;;;;5086504;28;20395;-78
2023/10/10 00:47:53;;;;;;;1.70;1.60;;;20.30;69.00;;;;;;5083311;28;20048;-78
2023/10/10 00:50:20;;;;;;;1.73;1.63;;;20.30;69.00;;;;;;5099091;28;20039;-78
2023/10/10 00:52:48;;;;;;;1.88;1.77;;;20.40;69.10;;;;;;5080343;28;20052;-78
2023/10/10 00:55:14;;;;;;;1.67;1.58;;;20.30;69.10;;;;;;5093249;28;20071;-78
2023/10/10 00:57:40;;;;;;;1.88;1.77;;;20.40;69.20;;;;;;5082636;28;20068;-78
2023/10/10 01:00:14;;;;;;;1.92;1.83;;;20.40;69.20;;;;;;5083457;28;20051;-78
2023/10/10 01:02:39;;;;;;;2.00;1.90;;;20.40;69.30;;;;;;5089642;28;20064;-78
2023/10/10 01:05:12;;;;;;;1.77;1.67;;;20.30;70.20;;;;;;5090776;28;20078;-78
2023/10/10 01:07:38;;;;;;;1.73;1.63;;;20.40;69.20;;;;;;5087602;28;20039;-78
2023/10/10 01:10:11;;;;;;;1.73;1.63;;;20.40;69.50;;;;;;5083214;28;20429;-78
2023/10/10 01:12:39;;;;;;;1.83;1.73;;;20.30;69.40;;;;;;5087609;28;20108;-78
2023/10/10 01:15:15;;;;;;;1.88;1.77;;;20.30;69.30;;;;;;5091330;28;20035;-78
2023/10/10 01:17:42;;;;;;;1.77;1.67;;;20.30;69.30;;;;;;5095765;28;20058;-78
2023/10/10 01:20:13;;;;;;;1.90;1.80;;;20.30;70.10;;;;;;5075825;28;20048;-78
2023/10/10 01:22:40;;;;;;;1.88;1.77;;;20.30;69.00;;;;;;5084644;28;20044;-78
2023/10/10 01:25:31;;;;;;;1.35;1.27;;;20.40;69.20;;;;;;5088637;28;20064;-78
2023/10/10 01:27:54;;;;;;;2.40;2.20;;;20.30;69.10;;;;;;5088974;28;20031;-78
2023/10/10 01:30:43;;;;;;;1.60;1.50;;;20.30;69.20;;;;;;5088643;28;20043;-78
2023/10/10 01:33:06;;;;;;;2.20;2.00;;;20.30;69.40;;;;;;5081298;28;20059;-78
2023/10/10 01:35:40;;;;;;;2.03;1.85;;;20.30;69.50;;;;;;5089187;28;20047;-78
2023/10/10 01:38:13;;;;;;;1.95;1.85;;;20.30;69.50;;;;;;5090193;28;20058;-78
2023/10/10 01:40:39;;;;;;;1.77;1.67;;;20.30;69.40;;;;;;5058709;28;20036;-78
2023/10/10 01:43:10;;;;;;;1.65;1.55;;;20.30;69.30;;;;;;5085884;28;20425;-78
2023/10/10 01:45:41;;;;;;;1.73;1.63;;;20.30;69.30;;;;;;5080351;28;20033;-78
2023/10/10 01:48:08;;;;;;;1.83;1.73;;;20.30;69.40;;;;;;5088360;28;20455;-78
2023/10/10 01:50:37;;;;;;;1.85;1.75;;;20.30;69.50;;;;;;5086579;28;20531;-78
2023/10/10 01:53:06;;;;;;;2.05;1.95;;;20.30;69.40;;;;;;5079984;28;20048;-78
2023/10/10 01:55:31;;;;;;;1.70;1.60;;;20.30;69.40;;;;;;5086434;28;20044;-78
2023/10/10 01:57:57;;;;;;;1.50;1.40;;;20.30;69.30;;;;;;5082779;28;20531;-78
2023/10/10 02:00:26;;;;;;;1.85;1.75;;;20.40;69.50;;;;;;5085740;28;20088;-78
2023/10/10 02:02:55;;;;;;;1.55;1.45;;;20.30;69.30;;;;;;5088526;28;20174;-78
2023/10/10 02:08:04;;;;;;;1.92;1.83;;;20.30;69.40;;;;;;5087800;28;20037;-78
2023/10/10 02:10:30;;;;;;;1.75;1.65;;;20.40;69.50;;;;;;5092082;28;20132;-78
2023/10/10 02:13:00;;;;;;;1.63;1.52;;;20.30;69.50;;;;;;5092828;28;20176;-78
2023/10/10 02:15:27;;;;;;;1.50;1.40;;;20.30;69.20;;;;;;5087969;28;20043;-78
2023/10/10 02:17:54;;;;;;;1.70;1.60;;;20.30;69.40;;;;;;5092501;28;20044;-78
2023/10/10 02:22:53;;;;;;;1.90;1.80;;;20.30;70.40;;;;;;5086995;28;20822;-78
2023/10/10 02:25:37;;;;;;;2.10;1.92;;;20.30;69.60;;;;;;5085944;28;20551;-78
2023/10/10 02:28:05;;;;;;;1.77;1.67;;;20.30;69.50;;;;;;5081802;28;20074;-77
2023/10/10 02:30:45;;;;;;;1.80;1.70;;;20.30;69.60;;;;;;5076792;28;20056;-78
2023/10/10 02:38:23;;;;;;;2.08;1.88;;;20.30;69.60;;;;;;5088164;28;20134;-78
2023/10/10 02:40:55;;;;;;;2.13;2.03;;;20.30;69.70;;;;;;5095064;27;20461;-78
2023/10/10 02:43:45;;;;;;;1.80;1.70;;;20.30;69.70;;;;;;5070053;28;20077;-78
2023/10/10 02:46:17;;;;;;;1.75;1.65;;;20.30;69.70;;;;;;5078451;28;20131;-78
2023/10/10 02:48:44;;;;;;;1.63;1.52;;;20.30;69.90;;;;;;5091668;28;20199;-78
2023/10/10 02:51:15;;;;;;;1.98;1.88;;;20.30;69.80;;;;;;5093054;28;20528;-78
2023/10/10 02:53:46;;;;;;;1.90;1.80;;;20.30;69.70;;;;;;5095901;28;20550;-78
2023/10/10 02:56:18;;;;;;;1.70;1.60;;;20.30;69.60;;;;;;5093712;28;20040;-78
2023/10/10 02:58:45;;;;;;;2.00;1.90;;;20.30;69.60;;;;;;5093880;28;20047;-78
2023/10/10 03:01:26;;;;;;;1.80;1.70;;;20.30;69.70;;;;;;5098875;28;20039;-78
2023/10/10 03:03:54;;;;;;;1.73;1.63;;;20.40;69.80;;;;;;5087114;28;20051;-78
2023/10/10 03:06:28;;;;;;;2.03;1.92;;;20.30;69.30;;;;;;5089060;28;20081;-78
2023/10/10 03:09:07;;;;;;;1.87;1.77;;;20.30;69.60;;;;;;5084145;28;20044;-78
2023/10/10 03:11:36;;;;;;;2.17;2.08;;;20.30;69.70;;;;;;5091507;28;20522;-78
2023/10/10 03:14:07;;;;;;;1.80;1.70;;;20.30;70.10;;;;;;5089221;28;20043;-78
2023/10/10 03:16:44;;;;;;;1.40;1.40;;;20.30;70.50;;;;;;5082117;28;20131;-78
2023/10/10 03:35:04;;;;;;;2.75;1.70;;;20.30;70.00;;;;;;5091962;28;20058;-78
2023/10/10 03:37:39;;;;;;;2.00;1.90;;;20.40;70.10;;;;;;5084089;28;20056;-78
2023/10/10 05:24:09;;;;;;;1.80;1.70;;;20.30;68.90;;;;;;5083717;28;20062;-78
2023/10/10 05:26:46;;;;;;;1.52;1.42;;;20.30;68.60;;;;;;5076131;28;20055;-77
2023/10/10 05:29:13;;;;;;;2.00;1.90;;;20.30;68.30;;;;;;5090100;28;20488;-77
2023/10/10 05:31:38;;;;;;;2.25;1.67;;;20.30;68.60;;;;;;5080004;28;20150;-80
2023/10/10 05:34:04;;;;;;;1.88;1.77;;;20.30;68.30;;;;;;5062267;28;20145;-79
2023/10/10 05:36:30;;;;;;;1.60;1.50;;;20.30;68.20;;;;;;5085056;28;20046;-80
2023/10/10 05:38:55;;;;;;;1.90;1.80;;;20.30;68.60;;;;;;5057148;28;20572;-80
2023/10/10 05:41:22;;;;;;;1.70;1.60;;;20.30;68.60;;;;;;5108600;27;20055;-80
2023/10/10 05:43:50;;;;;;;2.00;1.80;;;20.30;68.00;;;;;;5068386;28;20067;-79
2023/10/10 05:46:16;;;;;;;4.07;3.70;;;20.30;67.80;;;;;;5050830;28;20047;-79
2023/10/10 05:48:41;;;;;;;6.50;4.35;;;19.60;61.50;;;;;;5067891;28;20047;-79
2023/10/10 05:51:10;;;;;;;4.38;3.97;;;18.70;64.50;;;;;;5085737;28;20070;-79
2023/10/10 05:53:35;;;;;;;7.13;4.78;;;18.70;66.30;;;;;;5081488;28;20536;-78
2023/10/10 05:56:12;;;;;;;6.35;4.20;;;19.00;65.00;;;;;;5085086;28;20051;-78
2023/10/10 05:58:44;;;;;;;4.10;3.80;;;19.40;63.70;;;;;;5063154;28;20039;-77
2023/10/10 06:01:12;;;;;;;4.43;4.00;;;19.40;63.00;;;;;;5078494;28;20086;-78
2023/10/10 06:03:39;;;;;;;5.22;4.35;;;19.40;63.40;;;;;;5083378;28;20066;-78
2023/10/10 06:06:05;;;;;;;5.53;4.07;;;19.50;62.80;;;;;;5092726;28;20043;-81
2023/10/10 06:08:31;;;;;;;4.20;3.80;;;19.50;62.80;;;;;;5083949;28;20044;-79
2023/10/10 06:10:57;;;;;;;4.00;3.70;;;19.40;62.20;;;;;;5078906;28;20055;-81
2023/10/10 06:13:23;;;;;;;6.32;4.20;;;19.40;62.20;;;;;;5084822;28;20048;-78
2023/10/10 06:15:50;;;;;;;5.47;4.25;;;19.40;62.40;;;;;;5086928;28;20047;-78
2023/10/10 06:18:17;;;;;;;5.40;4.00;;;19.40;62.70;;;;;;4737204;28;10000340;-78
2023/10/10 06:20:44;;;;;;;5.55;3.95;;;19.50;61.60;;;;;;5080005;28;20809;-78
2023/10/10 06:23:17;;;;;;;4.78;4.35;;;19.40;60.90;;;;;;5080826;28;20048;-78
2023/10/10 06:25:42;;;;;;;6.97;4.45;;;19.30;60.90;;;;;;5078762;28;20075;-78
2023/10/10 06:28:25;;;;;;;5.72;4.43;;;19.20;61.00;;;;;;5076041;28;20075;-78
2023/10/10 06:30:54;;;;;;;6.40;4.35;;;19.20;60.70;;;;;;5067885;28;20053;-78
2023/10/10 06:33:30;;;;;;;5.00;4.03;;;19.10;60.70;;;;;;5073272;28;20621;-77
2023/10/10 06:38:59;;;;;;;6.18;4.00;;;19.20;62.20;;;;;;5079093;28;20768;-79
2023/10/10 06:41:27;;;;;;;4.50;4.05;;;19.30;62.20;;;;;;5077519;28;20088;-79
2023/10/10 06:43:53;;;;;;;4.50;3.60;;;19.40;62.30;;;;;;5084685;28;20101;-81
2023/10/10 06:46:18;;;;;;;5.20;3.70;;;19.50;62.40;;;;;;5084250;28;20044;-81
2023/10/10 06:48:50;;;;;;;6.60;3.63;;;19.50;62.10;;;;;;5076747;28;20052;-79
2023/10/10 06:51:21;;;;;;;3.90;3.55;;;19.60;62.50;;;;;;5086543;28;20433;-79
2023/10/10 06:53:48;;;;;;;3.90;3.50;;;19.60;62.30;;;;;;5076524;28;20048;-77
2023/10/10 06:56:17;;;;;;;3.92;3.50;;;19.70;62.90;;;;;;5084667;28;20044;-77
2023/10/10 06:58:46;;;;;;;4.40;3.60;;;19.70;63.40;;;;;;5089306;28;20058;-77
2023/10/10 07:01:12;;;;;;;4.13;3.63;;;19.70;63.50;;;;;;5088332;28;20131;-77
2023/10/10 07:03:42;;;;;;;3.83;3.40;;;19.70;63.50;;;;;;5083088;28;20135;-77
2023/10/10 07:06:08;;;;;;;3.58;3.28;;;19.70;63.50;;;;;;5075569;28;20052;-77
2023/10/10 07:08:34;;;;;;;4.07;3.67;;;19.70;63.80;;;;;;5089276;28;20046;-77
2023/10/10 07:11:01;;;;;;;3.95;3.25;;;19.70;63.90;;;;;;5069818;28;20525;-77
2023/10/10 07:13:29;;;;;;;4.32;3.92;;;19.70;63.50;;;;;;5089040;28;20101;-78
2023/10/10 07:15:58;;;;;;;3.78;3.45;;;19.80;63.50;;;;;;5085785;28;20043;-77
2023/10/10 07:18:24;;;;;;;3.50;3.20;;;19.80;63.40;;;;;;5065205;28;20039;-77
2023/10/10 07:23:38;;;;;;;3.13;2.92;;;19.70;63.90;;;;;;5070785;28;20048;-77
2023/10/10 07:26:18;;;;;;;3.42;3.22;;;19.70;63.80;;;;;;5090603;28;20048;-77
2023/10/10 07:28:52;;;;;;;3.90;3.60;;;19.80;63.90;;;;;;5086864;28;20093;-77
2023/10/10 07:31:20;;;;;;;3.50;3.20;;;19.80;63.90;;;;;;5082832;28;20108;-77
2023/10/10 07:33:55;;;;;;;3.58;3.28;;;19.80;64.00;;;;;;5081195;28;20043;-77
2023/10/10 07:36:25;;;;;;;3.78;3.47;;;19.70;64.00;;;;;;5094656;28;20067;-77
2023/10/10 07:38:54;;;;;;;3.22;3.03;;;19.80;64.00;;;;;;5084302;28;20044;-77
2023/10/10 07:41:27;;;;;;;3.13;2.88;;;19.70;65.00;;;;;;5093514;28;20044;-77
2023/10/10 07:43:59;;;;;;;5.87;2.90;;;19.80;64.40;;;;;;5089903;28;20035;-77
2023/10/10 07:46:27;;;;;;;3.10;2.90;;;19.80;64.40;;;;;;5086175;28;20059;-78
2023/10/10 07:48:56;;;;;;;3.45;3.13;;;19.80;64.50;;;;;;5084825;28;20416;-77
2023/10/10 07:51:28;;;;;;;4.03;3.30;;;19.80;64.40;;;;;;5091951;28;20556;-77
2023/10/10 07:54:02;;;;;;;3.17;2.85;;;19.80;64.70;;;;;;5081865;28;20029;-77
2023/10/10 07:56:30;;;;;;;3.45;3.15;;;19.80;64.50;;;;;;5075346;28;20421;-77
2023/10/10 07:58:57;;;;;;;3.53;3.22;;;19.80;64.70;;;;;;5084834;28;20047;-77
2023/10/10 08:01:23;;;;;;;4.25;3.80;;;19.80;64.70;;;;;;5085075;28;20052;-77
2023/10/10 08:03:49;;;;;;;3.63;3.33;;;19.80;64.70;;;;;;5091014;28;20043;-77
2023/10/10 08:06:21;;;;;;;3.58;3.28;;;19.90;64.80;;;;;;5088735;28;20040;-77
2023/10/10 08:09:18;;;;;;;3.47;3.17;;;19.80;64.80;;;;;;5094762;28;20117;-77
2023/10/10 08:11:42;;;;;;;3.55;2.88;;;19.80;64.80;;;;;;5084269;28;20049;-77
2023/10/10 08:14:08;;;;;;;3.60;3.30;;;19.90;65.90;;;;;;5088521;28;20039;-78
2023/10/10 08:16:40;;;;;;;3.05;2.85;;;19.90;65.10;;;;;;5087353;28;20522;-77
2023/10/10 08:19:09;;;;;;;3.40;3.10;;;19.90;65.20;;;;;;5088252;28;20130;-77
2023/10/10 08:21:38;;;;;;;4.05;3.70;;;19.80;65.20;;;;;;5085852;28;20086;-78
2023/10/10 08:24:05;;;;;;;4.75;3.15;;;19.90;65.20;;;;;;5079938;28;20499;-77
2023/10/10 08:26:38;;;;;;;3.47;3.17;;;19.90;65.30;;;;;;5084141;28;20032;-77
2023/10/10 08:29:06;;;;;;;4.10;3.08;;;19.80;65.40;;;;;;5094882;28;20543;-77
2023/10/10 08:31:32;;;;;;;3.83;3.30;;;19.90;65.60;;;;;;5093871;28;20052;-77
2023/10/10 08:33:58;;;;;;;3.20;2.90;;;19.90;65.70;;;;;;5090060;28;20127;-77
2023/10/10 08:36:24;;;;;;;3.63;3.35;;;19.90;66.40;;;;;;5081590;28;20048;-77
2023/10/10 08:38:54;;;;;;;3.13;2.90;;;19.90;65.70;;;;;;5090646;28;20032;-77
2023/10/10 08:41:27;;;;;;;3.15;2.95;;;19.90;65.80;;;;;;5095891;28;20050;-77
2023/10/10 08:43:57;;;;;;;3.00;2.80;;;20.00;65.90;;;;;;5090696;28;20044;-77
2023/10/10 08:46:26;;;;;;;3.20;3.00;;;20.10;65.60;;;;;;5092847;28;20031;-77
2023/10/10 08:48:52;;;;;;;2.72;2.53;;;20.10;65.40;;;;;;5081359;28;20046;-77
2023/10/10 08:51:17;;;;;;;3.10;2.40;;;20.00;65.50;;;;;;5090477;28;20048;-77
2023/10/10 08:53:43;;;;;;;3.50;3.20;;;20.00;65.50;;;;;;5079643;28;20475;-77
2023/10/10 08:56:09;;;;;;;2.85;2.65;;;20.00;65.60;;;;;;5081046;28;20051;-77
2023/10/10 08:58:35;;;;;;;3.05;2.83;;;20.10;65.70;;;;;;5091005;28;20060;-77
2023/10/10 09:01:02;;;;;;;3.08;2.88;;;20.10;66.00;;;;;;5082483;28;20523;-78
2023/10/10 09:03:28;;;;;;;3.33;3.00;;;20.10;66.30;;;;;;5096430;28;20081;-77
2023/10/10 09:05:55;;;;;;;3.30;3.00;;;20.10;66.30;;;;;;5088965;28;20044;-77
2023/10/10 09:08:26;;;;;;;3.15;2.95;;;20.10;66.40;;;;;;5071576;28;20035;-77
2023/10/10 09:10:56;;;;;;;3.00;2.67;;;20.00;66.10;;;;;;5098971;28;20036;-77
2023/10/10 09:13:21;;;;;;;3.03;2.60;;;20.00;66.00;;;;;;5093004;28;20100;-77
2023/10/10 09:15:54;;;;;;;2.80;2.60;;;20.10;66.10;;;;;;5081797;28;20436;-77
2023/10/10 09:18:23;;;;;;;2.90;2.70;;;20.10;66.90;;;;;;5093137;28;20711;-77
2023/10/10 09:20:53;;;;;;;2.95;2.75;;;20.10;66.30;;;;;;5089149;28;20040;-77
2023/10/10 09:23:28;;;;;;;2.67;2.47;;;20.10;66.50;;;;;;5095746;28;20548;-77
2023/10/10 09:26:29;;;;;;;2.63;2.47;;;20.10;66.50;;;;;;5092114;28;20031;-77
2023/10/10 09:28:59;;;;;;;2.58;2.38;;;20.10;66.80;;;;;;5087140;28;20048;-77
2023/10/10 09:31:31;;;;;;;2.88;2.63;;;20.10;67.20;;;;;;5087658;28;20032;-77
2023/10/10 09:34:02;;;;;;;3.13;2.70;;;20.10;67.00;;;;;;5060798;28;20486;-77
2023/10/10 09:36:27;;;;;;;2.67;2.47;;;20.20;66.90;;;;;;5088007;28;20421;-78
2023/10/10 09:38:55;;;;;;;2.83;2.63;;;20.10;67.00;;;;;;5088756;28;20041;-78
2023/10/10 09:49:51;;;;;;;2.40;2.30;;;20.20;66.80;;;;;;5091817;28;20063;-77
2023/10/10 09:57:43;;;;;;;2.33;2.13;;;20.20;66.80;;;;;;5092929;28;20395;-77
2023/10/10 10:00:13;;;;;;;2.90;2.70;;;20.20;66.70;;;;;;5084076;28;20037;-77
2023/10/10 10:02:42;;;;;;;2.70;2.50;;;20.20;66.50;;;;;;5074682;28;20080;-77
2023/10/10 10:05:16;;;;;;;2.80;2.60;;;20.30;66.30;;;;;;5079653;28;20062;-77
2023/10/10 10:08:13;;;;;;;3.08;2.78;;;20.20;66.40;;;;;;5094486;28;20051;-77
2023/10/10 10:10:52;;;;;;;1.83;1.73;;;20.20;66.30;;;;;;5079347;28;20055;-77
2023/10/10 10:13:26;;;;;;;2.35;2.22;;;20.20;66.40;;;;;;5060172;28;20550;-79
2023/10/10 10:15:57;;;;;;;2.58;2.38;;;20.30;66.40;;;;;;5078481;28;20043;-77
2023/10/10 10:18:29;;;;;;;3.35;2.45;;;20.30;66.60;;;;;;5091542;28;20500;-78
2023/10/10 10:24:14;;;;;;;2.63;2.42;;;20.30;66.50;;;;;;5084385;28;20057;-78
2023/10/10 10:26:33;;;;;;;2.47;2.20;;;20.30;67.30;;;;;;5099374;28;20043;-78
2023/10/10 10:29:15;;;;;;;2.30;2.20;;;20.30;66.50;;;;;;5110834;27;20047;-78
2023/10/10 10:31:48;;;;;;;2.50;2.08;;;20.30;66.50;;;;;;5078832;28;20875;-77
2023/10/10 10:37:20;;;;;;;2.70;2.50;;;20.30;66.80;;;;;;5079307;28;20028;-78
2023/10/10 10:42:34;;;;;;;2.30;2.20;;;20.40;66.50;;;;;;5100242;27;20055;-78
2023/10/10 10:45:23;;;;;;;2.50;2.30;;;20.40;66.30;;;;;;5080231;28;20082;-78
2023/10/10 10:48:01;;;;;;;2.00;1.90;;;20.40;66.20;;;;;;5110023;27;20048;-78
2023/10/10 10:50:29;;;;;;;2.30;2.20;;;20.40;66.10;;;;;;5093832;28;20032;-78
2023/10/10 10:53:04;;;;;;;2.38;2.17;;;20.40;66.30;;;;;;5097491;28;20043;-78
2023/10/10 10:55:30;;;;;;;2.30;2.10;;;20.40;66.40;;;;;;5096200;27;20036;-78
2023/10/10 10:58:20;;;;;;;2.70;2.50;;;20.40;66.40;;;;;;5079898;28;20386;-78
2023/10/10 11:03:34;;;;;;;2.60;2.25;;;20.50;66.40;;;;;;5083396;28;20048;-78
2023/10/10 11:06:00;;;;;;;2.10;2.00;;;20.40;66.30;;;;;;5067508;28;20083;-78
2023/10/10 11:11:23;;;;;;;2.17;2.08;;;20.50;66.10;;;;;;5089089;28;20047;-78
2023/10/10 11:13:50;;;;;;;2.72;2.53;;;20.50;66.00;;;;;;5082482;28;20124;-78
2023/10/10 11:16:15;;;;;;;2.22;1.80;;;20.50;65.90;;;;;;5083037;28;20138;-78
2023/10/10 11:18:41;;;;;;;2.35;2.20;;;20.50;66.00;;;;;;5081016;28;20594;-78
2023/10/10 11:21:11;;;;;;;2.08;1.98;;;20.50;66.00;;;;;;5090199;28;20037;-78
2023/10/10 11:23:43;;;;;;;2.42;2.33;;;20.50;65.90;;;;;;5082180;28;20425;-78
2023/10/10 11:26:13;;;;;;;2.13;2.03;;;20.50;66.00;;;;;;5073255;28;20112;-78
2023/10/10 11:28:47;;;;;;;2.08;1.98;;;20.50;65.90;;;;;;5088638;28;20047;-78
2023/10/10 11:31:14;;;;;;;2.03;1.92;;;20.60;66.90;;;;;;5082961;28;20094;-78
2023/10/10 11:33:49;;;;;;;1.52;1.42;;;20.50;66.00;;;;;;5072760;28;20040;-79
2023/10/10 11:36:29;;;;;;;1.90;1.80;;;20.60;66.50;;;;;;5083221;28;20044;-78
2023/10/10 11:38:56;;;;;;;1.90;1.80;;;20.60;66.90;;;;;;5078874;28;20051;-80
2023/10/10 11:41:30;;;;;;;2.10;2.00;;;20.60;67.10;;;;;;5098421;28;20054;-79
2023/10/10 11:43:56;;;;;;;;;;;20.70;67.10;;;;;;5095525;28;20115;-80
2023/10/10 11:46:22;;;;;;;2.08;1.98;;;20.60;66.90;;;;;;5091044;28;19928;-79
2023/10/10 11:48:48;;;;;;;1.83;1.73;;;20.70;66.90;;;;;;5048958;28;20039;-79
2023/10/10 11:51:14;;;;;;;3.10;1.73;;;20.60;67.00;;;;;;5066711;28;20028;-79
2023/10/10 11:53:40;;;;;;;1.92;1.83;;;20.60;67.10;;;;;;5068201;28;20048;-79
2023/10/10 11:56:11;;;;;;;1.90;1.80;;;20.70;67.30;;;;;;5092631;28;20445;-79
2023/10/10 11:58:37;;;;;;;1.77;1.67;;;20.70;67.30;;;;;;5070572;28;21900;-78
2023/10/10 12:01:06;;;;;;;2.78;2.13;;;20.70;68.00;;;;;;5073386;28;20060;-77
2023/10/10 12:06:04;;;;;;;4.30;2.10;;;20.60;67.40;;;;;;5085620;28;20390;-77
2023/10/10 12:08:29;;;;;;;2.78;1.85;;;20.70;67.50;;;;;;5086255;28;20225;-77
2023/10/10 12:11:06;;;;;;;2.33;2.17;;;20.60;67.40;;;;;;5089815;28;20127;-77
2023/10/10 12:15:57;;;;;;;1.77;1.67;;;20.70;67.40;;;;;;5099738;28;20040;-76
2023/10/10 12:18:30;;;;;;;3.50;2.65;;;20.70;67.40;;;;;;5088163;28;20036;-77
2023/10/10 12:20:58;;;;;;;1.92;1.83;;;20.70;67.70;;;;;;5081099;28;20040;-77
2023/10/10 12:23:24;;;;;;;1.77;1.67;;;20.70;67.70;;;;;;5096980;28;20418;-77
2023/10/10 12:25:50;;;;;;;1.85;1.75;;;20.70;67.70;;;;;;5090852;28;20119;-76
2023/10/10 12:28:18;;;;;;;2.20;1.88;;;20.70;67.70;;;;;;5089418;28;20146;-76
2023/10/10 12:30:44;;;;;;;1.70;1.60;;;20.70;67.70;;;;;;5089496;28;20036;-76
2023/10/10 12:33:13;;;;;;;2.20;2.00;;;20.70;67.80;;;;;;5083533;28;20127;-76
2023/10/10 12:35:42;;;;;;;1.70;1.60;;;20.70;67.90;;;;;;5089951;28;20056;-76
2023/10/10 12:38:08;;;;;;;1.45;1.35;;;20.70;67.80;;;;;;5092002;28;20039;-76
2023/10/10 12:40:34;;;;;;;1.80;1.70;;;20.80;67.90;;;;;;5090379;28;20180;-77
2023/10/10 12:43:03;;;;;;;2.05;1.85;;;20.80;67.80;;;;;;5089667;28;20131;-77
2023/10/10 12:45:29;;;;;;;1.83;1.65;;;20.80;67.80;;;;;;5093753;28;20186;-77
2023/10/10 12:47:57;;;;;;;1.55;1.45;;;20.80;67.80;;;;;;5087612;28;20132;-77
2023/10/10 12:50:26;;;;;;;1.50;1.40;;;20.80;67.60;;;;;;5082362;28;20066;-77
2023/10/10 12:53:08;;;;;;;2.17;1.65;;;20.80;67.50;;;;;;5096881;28;20519;-77
2023/10/10 12:55:48;;;;;;;1.55;1.45;;;20.80;67.70;;;;;;5094490;28;20040;-77
2023/10/10 12:58:16;;;;;;;1.90;1.80;;;20.80;67.80;;;;;;5095057;28;20032;-77
2023/10/10 13:00:51;;;;;;;1.77;1.45;;;20.80;67.80;;;;;;5074990;28;20039;-77
2023/10/10 13:03:22;;;;;;;1.75;1.65;;;20.80;67.90;;;;;;5082946;28;20047;-77
2023/10/10 13:05:51;;;;;;;1.70;1.60;;;20.80;67.70;;;;;;5093673;28;20036;-77
2023/10/10 13:08:19;;;;;;;2.00;1.50;;;20.80;67.40;;;;;;5104772;28;20064;-77
2023/10/10 13:10:46;;;;;;;1.90;1.80;;;20.80;67.60;;;;;;5096552;28;20047;-77
2023/10/10 13:13:26;;;;;;;1.58;1.48;;;20.90;67.80;;;;;;5092033;28;20031;-77
2023/10/10 13:16:07;;;;;;;1.65;1.55;;;20.90;67.60;;;;;;4732692;28;9999665;-78
2023/10/10 13:18:33;;;;;;;1.40;1.30;;;20.90;68.00;;;;;;5088194;28;20117;-77
2023/10/10 13:21:00;;;;;;;1.60;1.50;;;20.90;67.10;;;;;;5095897;28;20052;-77
2023/10/10 13:23:25;;;;;;;1.50;1.40;;;20.90;66.80;;;;;;5079072;28;20050;-77
2023/10/10 13:25:51;;;;;;;1.50;1.35;;;20.90;66.70;;;;;;5104699;27;20107;-77
2023/10/10 13:28:17;;;;;;;1.83;1.73;;;20.90;66.70;;;;;;5104253;27;20042;-77
2023/10/10 13:30:46;;;;;;;1.30;1.23;;;20.90;66.60;;;;;;5053588;28;20046;-77
2023/10/10 13:33:15;;;;;;;1.48;1.38;;;20.90;66.40;;;;;;5092718;28;20035;-77
2023/10/10 13:35:40;;;;;;;1.42;1.33;;;20.90;66.40;;;;;;5085480;28;20044;-77
2023/10/10 13:38:07;;;;;;;1.55;1.45;;;20.90;66.50;;;;;;5094661;28;20046;-77
2023/10/10 13:40:45;;;;;;;1.60;1.50;;;20.90;66.70;;;;;;5085841;28;20128;-77
2023/10/10 13:43:17;;;;;;;1.10;1.10;;;20.90;66.70;;;;;;5085998;28;20559;-77
2023/10/10 13:45:48;;;;;;;1.55;1.45;;;20.80;66.40;;;;;;5080324;28;20411;-77
2023/10/10 13:48:18;;;;;;;2.10;1.30;;;20.90;66.50;;;;;;5065791;28;20029;-77
2023/10/10 13:50:50;;;;;;;1.40;1.30;;;20.90;66.30;;;;;;5089888;28;20047;-77
2023/10/10 13:53:16;;;;;;;1.63;1.50;;;20.90;66.50;;;;;;5084154;28;20383;-77
2023/10/10 13:55:43;;;;;;;1.70;1.42;;;20.80;66.40;;;;;;5079294;28;20050;-77
2023/10/10 13:58:16;;;;;;;1.15;1.13;;;20.80;67.40;;;;;;5076831;28;20032;-77
2023/10/10 14:00:52;;;;;;;1.88;1.33;;;20.90;66.60;;;;;;5084066;28;20033;-77
2023/10/10 14:03:35;;;;;;;1.40;1.30;;;20.90;66.40;;;;;;5072637;28;20063;-77
2023/10/10 14:06:00;;;;;;;1.70;1.60;;;20.80;66.30;;;;;;5091385;28;20127;-77
2023/10/10 14:08:27;;;;;;;1.05;1.05;;;20.80;66.30;;;;;;5091724;28;20130;-77
2023/10/10 14:10:53;;;;;;;1.40;1.30;;;20.90;66.20;;;;;;5078919;28;20047;-77
2023/10/10 14:13:19;;;;;;;1.50;1.40;;;20.80;66.10;;;;;;5085299;28;20036;-77
2023/10/10 14:15:55;;;;;;;1.30;1.20;;;20.90;66.30;;;;;;5088870;28;20036;-77
2023/10/10 14:18:42;;;;;;;1.33;1.27;;;20.90;66.20;;;;;;5072080;28;20044;-78
2023/10/10 14:21:10;;;;;;;1.35;1.27;;;20.80;66.30;;;;;;5094861;27;20111;-78
2023/10/10 14:23:36;;;;;;;1.50;1.40;;;20.80;66.30;;;;;;5088875;28;20059;-77
2023/10/10 14:26:18;;;;;;;1.40;1.30;;;20.90;66.30;;;;;;5110948;27;20088;-77
2023/10/10 14:28:53;;;;;;;0.95;0.95;;;20.90;66.40;;;;;;5105709;27;20101;-77
2023/10/10 14:31:22;;;;;;;0.90;0.90;;;20.80;66.50;;;;;;5070251;28;20047;-78
2023/10/10 14:33:48;;;;;;;1.33;1.25;;;20.90;66.50;;;;;;5065365;28;20682;-78
2023/10/10 14:36:14;;;;;;;1.13;1.13;;;20.80;66.50;;;;;;5086693;28;20044;-78
2023/10/10 14:38:46;;;;;;;1.40;1.30;;;20.80;66.40;;;;;;5089911;28;20050;-78
2023/10/10 14:41:17;;;;;;;1.55;1.45;;;20.80;66.20;;;;;;5086505;28;20071;-77
2023/10/10 14:43:55;;;;;;;1.27;1.17;;;20.80;66.70;;;;;;5068894;28;20078;-78
2023/10/10 14:46:24;;;;;;;1.60;1.50;;;20.90;66.60;;;;;;5062461;28;20573;-77
2023/10/10 14:49:06;;;;;;;1.25;1.05;;;20.80;66.50;;;;;;5103965;27;20113;-78
2023/10/10 14:51:36;;;;;;;1.10;1.10;;;20.80;66.70;;;;;;5061790;28;20688;-78
2023/10/10 14:54:11;;;;;;;1.70;1.60;;;20.80;66.50;;;;;;5063209;28;20061;-77
2023/10/10 14:56:38;;;;;;;1.50;1.40;;;20.80;66.60;;;;;;5065796;28;20103;-77
2023/10/10 14:59:05;;;;;;;1.70;1.60;;;20.80;66.60;;;;;;5093380;28;20779;-78
2023/10/10 15:01:35;;;;;;;1.13;1.13;;;20.80;66.60;;;;;;5086609;28;20051;-78
2023/10/10 15:04:04;;;;;;;1.13;1.08;;;20.80;66.70;;;;;;5088473;28;20078;-78
2023/10/10 15:06:31;;;;;;;1.10;1.10;;;20.80;66.50;;;;;;5087842;28;20096;-78
2023/10/10 15:08:58;;;;;;;1.02;1.00;;;20.80;66.70;;;;;;5084987;28;20135;-77
2023/10/10 15:11:27;;;;;;;1.00;1.00;;;20.80;66.70;;;;;;5092976;28;20043;-77
2023/10/10 15:13:54;;;;;;;1.92;1.48;;;20.80;66.60;;;;;;5101452;27;20155;-77
2023/10/10 15:16:21;;;;;;;1.58;1.48;;;20.80;66.70;;;;;;5072546;28;20439;-77
2023/10/10 15:18:47;;;;;;;1.20;1.10;;;20.80;66.70;;;;;;5084557;28;20039;-77
2023/10/10 15:21:13;;;;;;;1.00;1.00;;;20.80;66.70;;;;;;5072268;28;20036;-77
2023/10/10 15:23:39;;;;;;;1.40;1.30;;;20.80;66.90;;;;;;5098462;27;20142;-77
2023/10/10 15:26:06;;;;;;;1.30;1.20;;;20.80;66.90;;;;;;5103556;27;20127;-77
2023/10/10 15:28:31;;;;;;;1.02;1.02;;;20.80;66.80;;;;;;5071507;28;20064;-77
2023/10/10 15:30:59;;;;;;;1.65;1.55;;;20.90;66.50;;;;;;5054163;28;20145;-77
2023/10/10 15:33:26;;;;;;;1.50;1.40;;;21.00;65.90;;;;;;5073603;28;20421;-78
2023/10/10 15:35:54;;;;;;;1.60;1.50;;;21.00;66.00;;;;;;5100690;27;20044;-77
2023/10/10 15:38:22;;;;;;;1.70;1.60;;;21.00;65.90;;;;;;5066773;28;20047;-77
2023/10/10 15:40:48;;;;;;;1.25;1.13;;;20.90;66.10;;;;;;5081043;28;20517;-77
2023/10/10 15:43:13;;;;;;;1.50;1.40;;;20.90;66.30;;;;;;5096927;27;20044;-77
2023/10/10 15:45:42;;;;;;;1.25;1.23;;;20.90;66.50;;;;;;5082169;28;20060;-77
2023/10/10 15:48:23;;;;;;;1.73;1.40;;;20.90;66.60;;;;;;5104726;27;20039;-77
2023/10/10 15:50:53;;;;;;;1.17;1.17;;;20.90;66.60;;;;;;5081404;28;20046;-78